createdAt,value
2022-10-18T00:00:07.073Z,99.90
2022-10-18T00:02:35.763Z,99.90
2022-10-18T00:05:07.047Z,99.90
2022-10-18T00:07:35.666Z,99.90
2022-10-18T00:10:05.298Z,99.90
2022-10-18T00:12:35.804Z,99.90
2022-10-18T00:15:07.478Z,99.90
2022-10-18T00:17:36.453Z,99.90
2022-10-18T00:20:08.921Z,99.90
2022-10-18T00:22:39.198Z,99.90
2022-10-18T00:25:10.249Z,99.90
2022-10-18T00:27:39.328Z,99.90
2022-10-18T00:30:09.331Z,99.90
2022-10-18T00:32:38.321Z,99.90
2022-10-18T00:35:10.404Z,99.90
2022-10-18T00:37:38.906Z,99.90
2022-10-18T00:40:09.444Z,99.90
2022-10-18T00:42:39.798Z,99.90
2022-10-18T00:45:22.120Z,99.90
2022-10-18T00:47:57.008Z,99.90
2022-10-18T00:50:30.191Z,99.90
2022-10-18T00:53:03.628Z,99.90
2022-10-18T00:55:35.190Z,99.90
2022-10-18T00:58:05.218Z,99.90
2022-10-18T01:00:34.935Z,99.90
2022-10-18T01:03:03.940Z,99.90
2022-10-18T01:05:35.195Z,99.90
2022-10-18T01:08:33.723Z,99.90
2022-10-18T01:11:33.074Z,99.90
2022-10-18T01:14:29.484Z,99.90
2022-10-18T01:17:05.131Z,99.90
2022-10-18T01:20:21.935Z,99.90
2022-10-18T01:22:58.517Z,99.90
2022-10-18T01:25:44.053Z,99.90
2022-10-18T01:28:36.628Z,99.90
2022-10-18T01:31:16.333Z,99.90
2022-10-18T01:33:51.214Z,99.90
2022-10-18T01:36:27.305Z,99.90
2022-10-18T01:39:01.216Z,99.90
2022-10-18T01:41:30.903Z,99.90
2022-10-18T01:44:03.137Z,99.90
2022-10-18T01:46:34.485Z,99.90
2022-10-18T01:49:03.244Z,99.90
2022-10-18T01:51:34.730Z,99.90
2022-10-18T01:54:03.875Z,99.90
2022-10-18T01:56:48.797Z,99.90
2022-10-18T01:59:44.975Z,99.90
2022-10-18T02:02:32.389Z,99.90
2022-10-18T02:05:10.673Z,99.90
2022-10-18T02:07:51.956Z,99.90
2022-10-18T02:10:36.808Z,99.90
2022-10-18T02:13:05.963Z,99.90
2022-10-18T02:15:39.106Z,99.90
2022-10-18T02:18:15.886Z,99.90
2022-10-18T02:20:44.447Z,99.90
2022-10-18T02:23:16.069Z,99.90
2022-10-18T02:25:44.852Z,99.90
2022-10-18T02:28:13.673Z,99.90
2022-10-18T02:30:54.132Z,99.90
2022-10-18T02:33:34.263Z,99.90
2022-10-18T02:36:12.092Z,99.90
2022-10-18T02:38:43.515Z,99.90
2022-10-18T02:41:12.160Z,99.90
2022-10-18T02:43:40.680Z,99.90
2022-10-18T02:46:09.284Z,99.90
2022-10-18T02:48:39.308Z,99.90
2022-10-18T02:51:08.008Z,99.90
2022-10-18T02:53:36.566Z,99.90
2022-10-18T02:56:05.582Z,99.90
2022-10-18T02:58:34.159Z,99.90
2022-10-18T03:01:02.804Z,99.90
2022-10-18T03:03:31.426Z,99.90
2022-10-18T03:06:01.349Z,99.90
2022-10-18T03:08:29.902Z,99.90
2022-10-18T03:10:58.497Z,99.90
2022-10-18T03:13:27.201Z,99.90
2022-10-18T03:15:55.939Z,99.90
2022-10-18T03:18:24.475Z,99.90
2022-10-18T03:20:53.288Z,99.90
2022-10-18T03:23:23.370Z,99.90
2022-10-18T03:25:52.130Z,99.90
2022-10-18T03:28:20.674Z,99.90
2022-10-18T03:30:49.324Z,99.90
2022-10-18T03:33:18.080Z,99.90
2022-10-18T03:35:46.748Z,99.90
2022-10-18T03:38:15.381Z,99.90
2022-10-18T03:40:45.319Z,99.90
2022-10-18T03:43:13.878Z,99.90
2022-10-18T03:45:42.649Z,99.90
2022-10-18T03:48:11.399Z,99.90
2022-10-18T03:50:40.049Z,99.90
2022-10-18T03:53:08.844Z,99.90
2022-10-18T03:55:38.721Z,99.90
2022-10-18T03:58:08.656Z,99.90
2022-10-18T04:00:37.664Z,99.90
2022-10-18T04:03:06.292Z,99.90
2022-10-18T04:05:35.391Z,99.90
2022-10-18T04:08:04.787Z,99.90
2022-10-18T04:10:33.407Z,99.90
2022-10-18T04:13:02.106Z,99.90
2022-10-18T04:15:32.144Z,99.90
2022-10-18T04:18:01.296Z,99.90
2022-10-18T04:20:30.253Z,99.90
2022-10-18T04:22:58.798Z,99.90
2022-10-18T04:25:28.842Z,99.90
2022-10-18T04:27:57.509Z,99.90
2022-10-18T04:30:26.072Z,99.90
2022-10-18T04:32:56.033Z,99.90
2022-10-18T04:35:26.150Z,99.90
2022-10-18T04:37:55.161Z,99.90
2022-10-18T04:40:23.918Z,99.90
2022-10-18T04:42:52.487Z,99.90
2022-10-18T04:45:21.078Z,99.90
2022-10-18T04:47:49.699Z,99.90
2022-10-18T04:50:20.151Z,99.90
2022-10-18T04:55:17.504Z,99.90
2022-10-18T04:57:46.416Z,99.90
2022-10-18T05:00:16.364Z,99.90
2022-10-18T05:02:45.117Z,99.90
2022-10-18T05:05:14.321Z,99.90
2022-10-18T05:07:44.624Z,99.90
2022-10-18T05:10:13.284Z,99.90
2022-10-18T05:12:43.820Z,99.90
2022-10-18T05:15:13.080Z,99.90
2022-10-18T05:17:41.696Z,99.90
2022-10-18T05:20:11.665Z,99.90
2022-10-18T05:22:40.509Z,99.90
2022-10-18T05:25:11.329Z,99.90
2022-10-18T05:27:39.910Z,99.90
2022-10-18T05:30:09.910Z,99.90
2022-10-18T05:32:38.488Z,99.90
2022-10-18T05:35:08.573Z,99.90
2022-10-18T05:37:37.132Z,99.90
2022-10-18T05:40:07.348Z,99.90
2022-10-18T05:42:37.402Z,99.90
2022-10-18T05:45:07.449Z,99.90
2022-10-18T05:50:05.427Z,99.90
2022-10-18T05:52:34.358Z,99.90
2022-10-18T05:55:03.353Z,99.90
2022-10-18T05:57:32.929Z,99.90
2022-10-18T06:00:03.345Z,99.90
2022-10-18T06:02:32.100Z,99.90
2022-10-18T06:05:00.794Z,99.90
2022-10-18T06:07:29.807Z,99.90
2022-10-18T06:09:58.581Z,99.90
2022-10-18T06:12:27.335Z,99.90
2022-10-18T06:14:56.133Z,99.90
2022-10-18T06:17:27.793Z,99.90
2022-10-18T06:19:59.126Z,99.90
2022-10-18T06:22:27.814Z,99.90
2022-10-18T06:24:57.276Z,99.90
2022-10-18T06:27:26.075Z,99.90
2022-10-18T06:29:54.753Z,99.90
2022-10-18T06:32:23.467Z,99.90
2022-10-18T06:34:53.465Z,99.90
2022-10-18T06:37:22.138Z,99.90
2022-10-18T06:39:51.214Z,99.90
2022-10-18T06:42:22.572Z,99.90
2022-10-18T06:44:51.559Z,99.90
2022-10-18T06:47:21.378Z,99.90
2022-10-18T06:49:50.246Z,99.90
2022-10-18T06:52:22.754Z,99.90
2022-10-18T06:54:51.309Z,99.90
2022-10-18T06:57:21.189Z,99.90
2022-10-18T06:59:51.388Z,99.90
2022-10-18T07:02:20.306Z,99.90
2022-10-18T07:04:49.255Z,99.90
2022-10-18T07:07:21.225Z,99.90
2022-10-18T07:09:49.857Z,97.40
2022-10-18T07:12:19.105Z,98.80
2022-10-18T07:14:48.516Z,99.90
2022-10-18T07:17:17.367Z,98.40
2022-10-18T07:19:46.288Z,96.30
2022-10-18T07:22:15.380Z,94.00
2022-10-18T07:24:45.499Z,95.20
2022-10-18T07:27:14.706Z,94.60
2022-10-18T07:29:43.417Z,94.40
2022-10-18T07:32:12.143Z,94.60
2022-10-18T07:34:40.849Z,94.40
2022-10-18T07:37:10.172Z,94.60
2022-10-18T07:39:38.800Z,97.10
2022-10-18T07:42:08.955Z,96.40
2022-10-18T07:44:37.561Z,97.60
2022-10-18T07:47:06.395Z,97.20
2022-10-18T07:49:35.125Z,98.60
2022-10-18T07:52:03.760Z,99.90
2022-10-18T07:54:32.316Z,99.90
2022-10-18T07:57:00.927Z,96.10
2022-10-18T07:59:30.979Z,92.70
2022-10-18T08:01:59.720Z,95.60
2022-10-18T08:04:28.497Z,99.40
2022-10-18T08:06:57.199Z,97.00
2022-10-18T08:09:25.805Z,97.60
2022-10-18T08:11:54.465Z,98.30
2022-10-18T08:14:23.131Z,97.10
2022-10-18T08:16:53.548Z,94.20
2022-10-18T08:19:22.137Z,94.20
2022-10-18T08:21:50.775Z,92.50
2022-10-18T08:24:19.624Z,91.70
2022-10-18T08:26:50.735Z,91.10
2022-10-18T08:29:25.699Z,86.00
2022-10-18T08:31:56.968Z,83.40
2022-10-18T08:34:25.984Z,82.40
2022-10-18T08:36:54.637Z,80.70
2022-10-18T08:39:23.673Z,78.10
2022-10-18T08:42:24.963Z,80.60
2022-10-18T08:44:55.099Z,81.00
2022-10-18T08:47:35.367Z,78.90
2022-10-18T08:50:07.921Z,80.60
2022-10-18T08:52:55.375Z,77.00
2022-10-18T08:55:31.076Z,73.40
2022-10-18T08:57:59.872Z,75.80
2022-10-18T09:00:35.383Z,74.20
2022-10-18T09:03:26.087Z,76.10
2022-10-18T09:06:02.458Z,76.90
2022-10-18T09:09:18.408Z,77.10
2022-10-18T09:12:06.676Z,74.50
2022-10-18T09:14:57.218Z,73.80
2022-10-18T09:17:37.908Z,79.10
2022-10-18T09:20:24.045Z,82.50
2022-10-18T09:23:03.781Z,85.30
2022-10-18T09:25:44.791Z,84.20
2022-10-18T09:28:27.574Z,82.70
2022-10-18T09:31:08.320Z,79.60
2022-10-18T09:33:49.485Z,79.30
2022-10-18T09:36:24.423Z,78.50
2022-10-18T09:39:00.453Z,76.00
2022-10-18T09:41:37.130Z,76.30
2022-10-18T09:44:16.936Z,77.60
2022-10-18T09:46:53.278Z,73.00
2022-10-18T09:49:30.689Z,70.00
2022-10-18T09:52:07.967Z,71.30
2022-10-18T09:54:44.102Z,72.10
2022-10-18T09:57:19.488Z,68.30
2022-10-18T09:59:50.446Z,65.80
2022-10-18T10:02:22.300Z,70.00
2022-10-18T10:04:54.309Z,67.80
2022-10-18T10:07:32.673Z,71.30
2022-10-18T10:10:14.934Z,71.20
2022-10-18T10:12:44.078Z,72.20
2022-10-18T10:15:31.225Z,73.80
2022-10-18T10:18:06.947Z,71.40
2022-10-18T10:20:44.671Z,73.20
2022-10-18T10:23:24.166Z,70.20
2022-10-18T10:25:55.967Z,71.60
2022-10-18T10:28:29.856Z,70.30
2022-10-18T10:31:26.962Z,67.80
2022-10-18T10:34:02.972Z,77.30
2022-10-18T10:36:33.704Z,68.10
2022-10-18T10:39:12.573Z,71.00
2022-10-18T10:41:42.956Z,73.30
2022-10-18T10:44:18.747Z,70.60
2022-10-18T10:46:50.342Z,65.60
2022-10-18T10:52:28.958Z,67.90
2022-10-18T10:55:06.267Z,69.70
2022-10-18T10:57:48.315Z,67.10
2022-10-18T11:00:41.057Z,66.80
2022-10-18T11:03:30.960Z,64.90
2022-10-18T11:06:01.111Z,64.00
2022-10-18T11:08:39.448Z,64.50
2022-10-18T11:11:23.011Z,66.10
2022-10-18T11:14:13.672Z,65.40
2022-10-18T11:17:03.103Z,66.10
2022-10-18T11:20:00.876Z,65.60
2022-10-18T11:22:39.956Z,64.70
2022-10-18T11:25:15.907Z,64.40
2022-10-18T11:28:00.462Z,64.70
2022-10-18T11:30:58.964Z,64.20
2022-10-18T11:34:07.794Z,64.20
2022-10-18T11:36:56.119Z,64.80
2022-10-18T11:39:57.722Z,66.30
2022-10-18T11:42:40.114Z,66.30
2022-10-18T11:48:16.653Z,66.30
2022-10-18T11:50:57.985Z,66.60
2022-10-18T11:53:39.286Z,65.70
2022-10-18T11:56:21.731Z,65.10
2022-10-18T11:59:19.061Z,66.20
2022-10-18T12:02:01.583Z,64.90
2022-10-18T12:04:48.950Z,67.50
2022-10-18T12:07:32.931Z,68.50
2022-10-18T12:10:06.078Z,68.90
2022-10-18T12:12:42.621Z,69.00
2022-10-18T12:15:21.628Z,68.10
2022-10-18T12:17:55.725Z,66.40
2022-10-18T12:20:32.651Z,67.80
2022-10-18T12:23:04.991Z,68.30
2022-10-18T12:25:39.301Z,69.50
2022-10-18T12:28:17.584Z,70.20
2022-10-18T12:30:56.592Z,70.20
2022-10-18T12:33:35.745Z,69.80
2022-10-18T12:36:28.989Z,70.40
2022-10-18T12:39:03.587Z,71.00
2022-10-18T12:41:35.944Z,71.40
2022-10-18T12:44:09.256Z,71.70
2022-10-18T12:46:51.758Z,71.00
2022-10-18T12:49:30.321Z,71.70
2022-10-18T12:52:01.825Z,73.30
2022-10-18T12:54:32.878Z,72.20
2022-10-18T12:57:03.770Z,72.80
2022-10-18T12:59:42.489Z,72.50
2022-10-18T13:02:29.289Z,72.70
2022-10-18T13:05:02.466Z,71.90
2022-10-18T13:07:43.313Z,72.80
2022-10-18T13:10:42.396Z,72.70
2022-10-18T13:13:40.832Z,73.50
2022-10-18T13:16:43.539Z,73.10
2022-10-18T13:19:33.263Z,72.00
2022-10-18T13:22:28.519Z,72.70
2022-10-18T13:25:06.501Z,73.00
2022-10-18T13:27:49.147Z,73.20
2022-10-18T13:30:49.247Z,73.50
2022-10-18T13:33:32.573Z,73.20
2022-10-18T13:36:05.349Z,75.50
2022-10-18T13:38:49.176Z,75.90
2022-10-18T13:41:21.579Z,74.20
2022-10-18T13:44:12.489Z,74.20
2022-10-18T13:47:35.458Z,74.70
2022-10-18T13:50:42.825Z,74.50
2022-10-18T13:53:43.135Z,74.70
2022-10-18T13:56:53.360Z,77.40
2022-10-18T13:59:45.534Z,76.00
2022-10-18T14:02:51.546Z,76.30
2022-10-18T14:05:43.683Z,76.30
2022-10-18T14:08:18.636Z,77.60
2022-10-18T14:11:02.833Z,78.10
2022-10-18T14:13:44.474Z,78.10
2022-10-18T14:16:34.972Z,79.30
2022-10-18T14:19:19.261Z,79.50
2022-10-18T14:21:57.993Z,80.50
2022-10-18T14:24:28.728Z,81.20
2022-10-18T14:27:18.557Z,80.90
2022-10-18T14:29:49.789Z,81.10
2022-10-18T14:32:29.528Z,81.90
2022-10-18T14:35:27.574Z,84.60
2022-10-18T14:37:51.137Z,90.60
2022-10-18T14:40:40.330Z,90.90
2022-10-18T14:43:14.651Z,90.10
2022-10-18T14:45:45.051Z,92.60
2022-10-18T14:48:18.231Z,92.10
2022-10-18T14:50:51.693Z,93.40
2022-10-18T14:53:23.448Z,94.10
2022-10-18T14:55:57.050Z,94.80
2022-10-18T14:58:26.090Z,96.90
2022-10-18T15:00:56.315Z,97.30
2022-10-18T15:03:26.336Z,98.10
2022-10-18T15:05:59.521Z,99.90
2022-10-18T15:08:36.804Z,99.90
2022-10-18T15:11:10.467Z,99.90
2022-10-18T15:13:51.040Z,99.90
2022-10-18T15:16:24.678Z,99.90
2022-10-18T15:19:07.238Z,99.90
2022-10-18T15:21:37.696Z,99.90
2022-10-18T15:24:30.743Z,99.90
2022-10-18T15:27:10.788Z,99.90
2022-10-18T15:29:39.450Z,99.90
2022-10-18T15:32:22.779Z,99.90
2022-10-18T15:34:51.580Z,99.90
2022-10-18T15:37:34.127Z,99.90
2022-10-18T15:40:40.988Z,99.90
2022-10-18T15:43:38.111Z,99.90
2022-10-18T15:46:07.737Z,99.90
2022-10-18T15:48:41.649Z,99.90
2022-10-18T15:51:38.824Z,99.90
2022-10-18T15:54:14.410Z,99.90
2022-10-18T15:56:44.433Z,99.90
2022-10-18T15:59:26.758Z,99.90
2022-10-18T16:01:56.109Z,99.90
2022-10-18T16:04:28.279Z,99.90
2022-10-18T16:06:58.225Z,99.90
2022-10-18T16:09:29.751Z,99.90
2022-10-18T16:11:58.669Z,99.90
2022-10-18T16:14:28.577Z,99.90
2022-10-18T16:17:03.004Z,99.90
2022-10-18T16:19:34.193Z,99.90
2022-10-18T16:22:06.618Z,99.90
2022-10-18T16:24:35.525Z,99.90
2022-10-18T16:27:04.261Z,99.90
2022-10-18T16:29:33.224Z,99.90
2022-10-18T16:32:02.078Z,99.90
2022-10-18T16:34:32.761Z,99.90
2022-10-18T16:37:01.341Z,99.90
2022-10-18T16:39:34.792Z,99.90
2022-10-18T16:42:03.545Z,99.90
2022-10-18T16:44:32.545Z,99.90
2022-10-18T16:47:01.242Z,99.90
2022-10-18T16:49:29.921Z,99.90
2022-10-18T16:52:00.223Z,99.90
2022-10-18T16:54:28.945Z,99.90
2022-10-18T16:56:57.702Z,99.90
2022-10-18T16:59:30.049Z,99.90
2022-10-18T17:01:58.920Z,99.90
2022-10-18T17:04:29.237Z,99.90
2022-10-18T17:07:00.722Z,99.90
2022-10-18T17:09:29.345Z,99.90
2022-10-18T17:11:58.036Z,99.90
2022-10-18T17:14:26.823Z,99.90
2022-10-18T17:16:56.183Z,99.90
2022-10-18T17:19:26.152Z,99.90
2022-10-18T17:21:58.884Z,99.90
2022-10-18T17:24:31.921Z,99.90
2022-10-18T17:27:00.515Z,99.90
2022-10-18T17:29:29.249Z,99.90
2022-10-18T17:31:57.915Z,99.90
2022-10-18T17:34:26.520Z,99.90
2022-10-18T17:36:56.021Z,99.90
2022-10-18T17:39:24.708Z,99.90
2022-10-18T17:41:55.581Z,99.90
2022-10-18T17:44:24.847Z,99.90
2022-10-18T17:46:54.067Z,99.90
2022-10-18T17:49:23.086Z,99.90
2022-10-18T17:51:51.691Z,99.90
2022-10-18T17:54:20.292Z,99.90
2022-10-18T17:56:52.342Z,99.90
2022-10-18T17:59:24.747Z,99.90
2022-10-18T18:01:54.397Z,99.90
2022-10-18T18:04:24.210Z,99.90
2022-10-18T18:06:53.619Z,99.90
2022-10-18T18:09:22.338Z,99.90
2022-10-18T18:11:51.993Z,99.90
2022-10-18T18:14:21.729Z,99.90
2022-10-18T18:16:52.002Z,99.90
2022-10-18T18:19:20.813Z,99.90
2022-10-18T18:21:49.523Z,99.90
2022-10-18T18:24:24.569Z,99.90
2022-10-18T18:26:54.443Z,99.90
2022-10-18T18:29:24.860Z,99.90
2022-10-18T18:31:55.258Z,99.90
2022-10-18T18:34:24.025Z,99.90
2022-10-18T18:36:53.019Z,99.90
2022-10-18T18:39:26.166Z,99.90
2022-10-18T18:41:54.902Z,99.90
2022-10-18T18:44:24.621Z,99.90
2022-10-18T18:46:54.836Z,99.90
2022-10-18T18:49:23.620Z,99.90
2022-10-18T18:51:52.205Z,99.90
2022-10-18T18:54:22.163Z,99.90
2022-10-18T18:56:50.787Z,99.90
2022-10-18T18:59:20.273Z,99.90
2022-10-18T19:01:49.099Z,99.90
2022-10-18T19:04:19.116Z,99.90
2022-10-18T19:06:48.013Z,99.90
2022-10-18T19:09:22.090Z,99.90
2022-10-18T19:11:53.744Z,99.90
2022-10-18T19:14:24.921Z,99.90
2022-10-18T19:16:55.714Z,99.90
2022-10-18T19:19:28.256Z,99.90
2022-10-18T19:21:59.241Z,99.90
2022-10-18T19:24:31.144Z,99.90
2022-10-18T19:27:02.617Z,99.90
2022-10-18T19:29:33.651Z,99.90
2022-10-18T19:32:04.948Z,99.90
2022-10-18T19:34:35.732Z,99.90
2022-10-18T19:37:05.244Z,99.90
2022-10-18T19:39:36.019Z,99.90
2022-10-18T19:42:09.000Z,99.90
2022-10-18T19:44:38.599Z,99.90
2022-10-18T19:47:08.947Z,99.90
2022-10-18T19:49:39.679Z,99.90
2022-10-18T19:52:08.287Z,99.90
2022-10-18T19:54:36.835Z,99.90
2022-10-18T19:57:05.738Z,99.90
2022-10-18T19:59:36.058Z,99.90
2022-10-18T20:02:05.691Z,99.90
2022-10-18T20:04:35.280Z,99.90
2022-10-18T20:07:06.338Z,99.90
2022-10-18T20:09:35.193Z,99.90
2022-10-18T20:12:03.819Z,99.90
2022-10-18T20:14:32.356Z,99.90
2022-10-18T20:17:01.481Z,99.90
2022-10-18T20:19:30.063Z,99.90
2022-10-18T20:21:58.846Z,99.90
2022-10-18T20:24:28.955Z,99.90
2022-10-18T20:26:57.608Z,99.90
2022-10-18T20:29:26.671Z,99.90
2022-10-18T20:31:56.674Z,99.90
2022-10-18T20:34:26.208Z,99.90
2022-10-18T20:36:56.527Z,99.90
2022-10-18T20:39:25.477Z,99.90
2022-10-18T20:41:55.465Z,99.90
2022-10-18T20:44:26.238Z,99.90
2022-10-18T20:46:54.866Z,99.90
2022-10-18T20:49:23.416Z,99.90
2022-10-18T20:51:51.995Z,99.90
2022-10-18T20:54:20.576Z,99.90
2022-10-18T20:56:49.129Z,99.90
2022-10-18T20:59:19.135Z,99.90
2022-10-18T21:01:48.146Z,99.90
2022-10-18T21:04:16.684Z,99.90
2022-10-18T21:06:45.964Z,99.90
2022-10-18T21:09:18.168Z,99.90
2022-10-18T21:11:49.608Z,99.90
2022-10-18T21:14:22.191Z,99.90
2022-10-18T21:16:53.079Z,99.90
2022-10-18T21:19:23.997Z,99.90
2022-10-18T21:21:55.393Z,99.90
2022-10-18T21:24:26.571Z,99.90
2022-10-18T21:26:55.736Z,99.90
2022-10-18T21:29:25.912Z,99.90
2022-10-18T21:31:59.469Z,99.90
2022-10-18T21:34:28.485Z,99.90
2022-10-18T21:36:57.319Z,99.90
2022-10-18T21:39:26.023Z,99.90
2022-10-18T21:41:54.600Z,99.90
2022-10-18T21:44:23.340Z,99.90
2022-10-18T21:46:55.102Z,99.90
2022-10-18T21:49:25.134Z,99.90
2022-10-18T21:51:53.760Z,99.90
2022-10-18T21:54:22.441Z,99.90
2022-10-18T21:56:51.215Z,99.90
2022-10-18T21:59:19.752Z,99.90
2022-10-18T22:01:48.320Z,99.90
2022-10-18T22:04:29.423Z,99.90
2022-10-18T22:06:58.407Z,99.90
2022-10-18T22:09:26.959Z,99.90
2022-10-18T22:11:56.084Z,99.90
2022-10-18T22:14:24.940Z,99.90
2022-10-18T22:16:53.538Z,99.90
2022-10-18T22:19:23.502Z,99.90
2022-10-18T22:21:52.605Z,99.90
2022-10-18T22:24:21.213Z,99.90
2022-10-18T22:26:50.125Z,99.90
2022-10-18T22:29:21.284Z,99.90
2022-10-18T22:31:52.411Z,99.90
2022-10-18T22:34:27.428Z,99.90
2022-10-18T22:36:56.348Z,99.90
2022-10-18T22:39:25.730Z,99.90
2022-10-18T22:41:56.399Z,99.90
2022-10-18T22:44:27.505Z,99.90
2022-10-18T22:46:56.333Z,99.90
2022-10-18T22:49:26.232Z,99.90
2022-10-18T22:51:54.821Z,99.90
2022-10-18T22:54:23.358Z,99.90
2022-10-18T22:56:51.935Z,99.90
2022-10-18T22:59:20.665Z,99.90
2022-10-18T23:01:49.239Z,99.90
2022-10-18T23:04:17.848Z,99.90
2022-10-18T23:06:47.798Z,99.90
2022-10-18T23:09:16.343Z,99.90
2022-10-18T23:11:47.093Z,99.90
2022-10-18T23:14:15.645Z,99.90
2022-10-18T23:16:45.057Z,99.90
2022-10-18T23:19:17.012Z,99.90
2022-10-18T23:21:46.958Z,99.90
2022-10-18T23:24:15.495Z,99.90
2022-10-18T23:26:44.139Z,99.90
2022-10-18T23:29:12.816Z,99.90
2022-10-18T23:31:41.398Z,99.90
2022-10-18T23:34:11.608Z,99.90
2022-10-18T23:36:40.237Z,99.90
2022-10-18T23:39:11.449Z,99.90
2022-10-18T23:41:40.005Z,99.90
2022-10-18T23:44:09.142Z,99.90
2022-10-18T23:46:37.738Z,99.90
2022-10-18T23:49:06.449Z,99.90
2022-10-18T23:51:35.062Z,99.90
2022-10-18T23:54:03.625Z,99.90
2022-10-18T23:56:33.540Z,99.90
2022-10-18T23:59:02.214Z,99.90
